sensor_id;sensor_type;location;lat;lon;timestamp;pressure;altitude;pressure_sealevel;temperature;humidity
50774;BME280;36745;48.544;8.918;2023-02-17T00:02:00;98225.94;;;5.75;72.69
50774;BME280;36745;48.544;8.918;2023-02-17T00:05:20;98222.81;;;5.80;72.89
50774;BME280;36745;48.544;8.918;2023-02-17T00:08:40;98216.19;;;5.81;72.96
50774;BME280;36745;48.544;8.918;2023-02-17T00:11:59;98221.69;;;5.88;72.57
50774;BME280;36745;48.544;8.918;2023-02-17T00:15:19;98212.28;;;5.86;72.56
50774;BME280;36745;48.544;8.918;2023-02-17T00:18:39;98224.00;;;5.83;72.56
50774;BME280;36745;48.544;8.918;2023-02-17T00:22:01;98217.75;;;5.82;72.91
50774;BME280;36745;48.544;8.918;2023-02-17T00:25:20;98215.00;;;5.86;72.92
50774;BME280;36745;48.544;8.918;2023-02-17T00:28:40;98210.31;;;5.86;72.82
50774;BME280;36745;48.544;8.918;2023-02-17T00:32:00;98215.00;;;5.79;73.01
50774;BME280;36745;48.544;8.918;2023-02-17T00:35:20;98205.22;;;5.81;72.77
50774;BME280;36745;48.544;8.918;2023-02-17T00:38:40;98216.19;;;5.81;72.87
50774;BME280;36745;48.544;8.918;2023-02-17T00:41:59;98207.53;;;5.69;72.83
50774;BME280;36745;48.544;8.918;2023-02-17T00:45:19;98202.03;;;5.62;72.85
50774;BME280;36745;48.544;8.918;2023-02-17T00:48:40;98201.25;;;5.51;73.37
50774;BME280;36745;48.544;8.918;2023-02-17T00:51:59;98203.91;;;5.40;73.40
50774;BME280;36745;48.544;8.918;2023-02-17T00:55:20;98204.69;;;5.33;73.83
50774;BME280;36745;48.544;8.918;2023-02-17T00:58:39;98208.94;;;5.27;74.12
50774;BME280;36745;48.544;8.918;2023-02-17T01:02:02;98203.38;;;5.13;74.31
50774;BME280;36745;48.544;8.918;2023-02-17T01:05:21;98211.94;;;5.08;73.76
50774;BME280;36745;48.544;8.918;2023-02-17T01:08:41;98216.63;;;5.04;74.38
50774;BME280;36745;48.544;8.918;2023-02-17T01:12:01;98215.75;;;4.86;74.63
50774;BME280;36745;48.544;8.918;2023-02-17T01:15:21;98216.78;;;4.71;75.34
50774;BME280;36745;48.544;8.918;2023-02-17T01:18:41;98219.94;;;4.73;76.01
50774;BME280;36745;48.544;8.918;2023-02-17T01:22:00;98212.50;;;4.70;76.07
50774;BME280;36745;48.544;8.918;2023-02-17T01:25:20;98215.25;;;4.70;76.19
50774;BME280;36745;48.544;8.918;2023-02-17T01:28:40;98206.19;;;4.58;76.63
50774;BME280;36745;48.544;8.918;2023-02-17T01:32:00;98209.38;;;4.68;77.48
50774;BME280;36745;48.544;8.918;2023-02-17T01:35:20;98197.72;;;4.74;77.32
50774;BME280;36745;48.544;8.918;2023-02-17T01:38:39;98191.84;;;4.76;77.05
50774;BME280;36745;48.544;8.918;2023-02-17T01:42:00;98188.31;;;4.72;77.56
50774;BME280;36745;48.544;8.918;2023-02-17T01:48:46;98174.34;;;4.80;77.27
50774;BME280;36745;48.544;8.918;2023-02-17T01:52:11;98170.41;;;4.74;77.29
50774;BME280;36745;48.544;8.918;2023-02-17T01:55:32;98168.03;;;4.73;77.70
50774;BME280;36745;48.544;8.918;2023-02-17T01:58:59;98162.59;;;4.73;78.24
50774;BME280;36745;48.544;8.918;2023-02-17T02:02:20;98155.97;;;4.81;78.36
50774;BME280;36745;48.544;8.918;2023-02-17T02:05:41;98165.38;;;4.80;78.11
50774;BME280;36745;48.544;8.918;2023-02-17T02:09:17;98164.13;;;4.70;78.35
50774;BME280;36745;48.544;8.918;2023-02-17T02:12:39;98159.41;;;4.63;78.05
50774;BME280;36745;48.544;8.918;2023-02-17T02:16:09;98162.59;;;4.73;78.28
50774;BME280;36745;48.544;8.918;2023-02-17T02:34:23;98153.22;;;4.19;78.93
50774;BME280;36745;48.544;8.918;2023-02-17T02:41:09;98145.78;;;4.16;80.41
50774;BME280;36745;48.544;8.918;2023-02-17T02:44:30;98143.84;;;4.16;79.72
50774;BME280;36745;48.544;8.918;2023-02-17T02:47:52;98151.22;;;4.12;80.42
50774;BME280;36745;48.544;8.918;2023-02-17T02:58:10;98153.16;;;4.08;79.75
50774;BME280;36745;48.544;8.918;2023-02-17T03:01:44;98139.81;;;4.00;80.26
50774;BME280;36745;48.544;8.918;2023-02-17T03:05:53;98149.56;;;4.01;81.00
50774;BME280;36745;48.544;8.918;2023-02-17T03:09:11;98142.53;;;4.00;81.22
50774;BME280;36745;48.544;8.918;2023-02-17T03:12:32;98130.81;;;3.96;81.00
50774;BME280;36745;48.544;8.918;2023-02-17T03:15:52;98130.13;;;4.06;80.93
50774;BME280;36745;48.544;8.918;2023-02-17T03:19:14;98130.13;;;4.06;81.08
50774;BME280;36745;48.544;8.918;2023-02-17T03:22:37;98128.56;;;4.05;81.47
50774;BME280;36745;48.544;8.918;2023-02-17T03:25:58;98130.19;;;4.13;81.76
50774;BME280;36745;48.544;8.918;2023-02-17T03:29:18;98122.50;;;4.26;81.76
50774;BME280;36745;48.544;8.918;2023-02-17T03:32:39;98120.06;;;4.17;81.56
50774;BME280;36745;48.544;8.918;2023-02-17T03:35:59;98118.56;;;4.23;81.39
50774;BME280;36745;48.544;8.918;2023-02-17T03:39:19;98122.41;;;4.15;81.26
50774;BME280;36745;48.544;8.918;2023-02-17T03:42:39;98136.00;;;4.11;80.46
50774;BME280;36745;48.544;8.918;2023-02-17T03:45:58;98141.34;;;3.94;81.36
50774;BME280;36745;48.544;8.918;2023-02-17T03:49:18;98130.00;;;3.92;81.61
50774;BME280;36745;48.544;8.918;2023-02-17T03:52:38;98133.16;;;3.94;81.99
50774;BME280;36745;48.544;8.918;2023-02-17T03:55:58;98140.06;;;3.84;81.29
50774;BME280;36745;48.544;8.918;2023-02-17T03:59:18;98137.31;;;3.80;81.06
50774;BME280;36745;48.544;8.918;2023-02-17T04:02:38;98135.19;;;3.63;82.14
50774;BME280;36745;48.544;8.918;2023-02-17T04:05:57;98144.94;;;3.64;82.82
50774;BME280;36745;48.544;8.918;2023-02-17T04:09:17;98139.84;;;3.63;82.59
50774;BME280;36745;48.544;8.918;2023-02-17T04:12:37;98137.19;;;3.70;83.03
50774;BME280;36745;48.544;8.918;2023-02-17T04:15:57;98137.53;;;3.61;82.70
50774;BME280;36745;48.544;8.918;2023-02-17T04:19:17;98141.41;;;3.60;83.04
50774;BME280;36745;48.544;8.918;2023-02-17T04:22:37;98139.47;;;3.61;83.12
50774;BME280;36745;48.544;8.918;2023-02-17T04:25:57;98144.59;;;3.69;83.60
50774;BME280;36745;48.544;8.918;2023-02-17T04:29:16;98142.28;;;3.71;83.61
50774;BME280;36745;48.544;8.918;2023-02-17T04:32:36;98139.47;;;3.64;83.60
50774;BME280;36745;48.544;8.918;2023-02-17T04:35:56;98133.22;;;3.60;83.49
50774;BME280;36745;48.544;8.918;2023-02-17T04:39:18;98139.81;;;3.59;83.71
50774;BME280;36745;48.544;8.918;2023-02-17T04:42:38;98141.66;;;3.48;83.67
50774;BME280;36745;48.544;8.918;2023-02-17T04:45:58;98150.66;;;3.52;83.94
50774;BME280;36745;48.544;8.918;2023-02-17T04:49:17;98143.31;;;3.56;83.18
50774;BME280;36745;48.544;8.918;2023-02-17T04:52:37;98145.97;;;3.49;83.75
50774;BME280;36745;48.544;8.918;2023-02-17T04:55:57;98132.00;;;3.58;83.93
50774;BME280;36745;48.544;8.918;2023-02-17T04:59:17;98129.72;;;3.63;84.12
50774;BME280;36745;48.544;8.918;2023-02-17T05:02:37;98131.66;;;3.63;84.59
50774;BME280;36745;48.544;8.918;2023-02-17T05:05:57;98126.28;;;3.66;84.24
50774;BME280;36745;48.544;8.918;2023-02-17T05:09:16;98117.34;;;3.73;84.43
50774;BME280;36745;48.544;8.918;2023-02-17T05:12:36;98120.50;;;3.75;84.75
50774;BME280;36745;48.544;8.918;2023-02-17T05:15:56;98112.34;;;3.78;84.63
50774;BME280;36745;48.544;8.918;2023-02-17T05:19:16;98113.91;;;3.79;84.68
50774;BME280;36745;48.544;8.918;2023-02-17T05:22:36;98115.84;;;3.75;84.68
50774;BME280;36745;48.544;8.918;2023-02-17T05:25:55;98101.44;;;3.78;84.49
50774;BME280;36745;48.544;8.918;2023-02-17T05:29:15;98104.16;;;3.78;84.72
50774;BME280;36745;48.544;8.918;2023-02-17T05:32:35;98108.50;;;3.83;84.31
50774;BME280;36745;48.544;8.918;2023-02-17T05:35:55;98111.94;;;3.76;84.60
50774;BME280;36745;48.544;8.918;2023-02-17T05:39:15;98118.19;;;3.77;84.80
50774;BME280;36745;48.544;8.918;2023-02-17T05:42:34;98108.09;;;3.81;85.54
50774;BME280;36745;48.544;8.918;2023-02-17T05:45:54;98105.47;;;3.92;85.49
50774;BME280;36745;48.544;8.918;2023-02-17T05:49:14;98114.44;;;3.96;85.44
50774;BME280;36745;48.544;8.918;2023-02-17T05:52:34;98109.78;;;3.96;84.84
50774;BME280;36745;48.544;8.918;2023-02-17T05:55:54;98106.63;;;3.94;85.94
50774;BME280;36745;48.544;8.918;2023-02-17T05:59:14;98118.03;;;4.03;86.24
50774;BME280;36745;48.544;8.918;2023-02-17T06:02:33;98118.06;;;4.10;85.84
50774;BME280;36745;48.544;8.918;2023-02-17T06:05:53;98119.63;;;4.08;85.67
50774;BME280;36745;48.544;8.918;2023-02-17T06:09:13;98121.53;;;4.04;86.09
50774;BME280;36745;48.544;8.918;2023-02-17T06:12:33;98120.06;;;4.13;86.32
50774;BME280;36745;48.544;8.918;2023-02-17T06:15:53;98126.25;;;4.10;86.49
50774;BME280;36745;48.544;8.918;2023-02-17T06:19:13;98128.59;;;4.12;86.14
50774;BME280;36745;48.544;8.918;2023-02-17T06:22:33;98127.88;;;4.15;86.30
50774;BME280;36745;48.544;8.918;2023-02-17T06:25:53;98139.94;;;4.14;86.52
50774;BME280;36745;48.544;8.918;2023-02-17T06:29:12;98149.38;;;4.27;85.97
50774;BME280;36745;48.544;8.918;2023-02-17T06:32:32;98147.41;;;4.20;86.81
50774;BME280;36745;48.544;8.918;2023-02-17T06:35:53;98154.44;;;4.25;86.65
50774;BME280;36745;48.544;8.918;2023-02-17T06:39:13;98160.31;;;4.27;87.02
50774;BME280;36745;48.544;8.918;2023-02-17T06:42:32;98163.09;;;4.34;87.10
50774;BME280;36745;48.544;8.918;2023-02-17T06:45:52;98165.44;;;4.36;88.01
50774;BME280;36745;48.544;8.918;2023-02-17T06:49:13;98164.75;;;4.49;87.24
50774;BME280;36745;48.544;8.918;2023-02-17T06:52:33;98167.88;;;4.48;87.73
50774;BME280;36745;48.544;8.918;2023-02-17T06:55:53;98173.38;;;4.55;87.59
50774;BME280;36745;48.544;8.918;2023-02-17T06:59:13;98168.78;;;4.66;87.72
50774;BME280;36745;48.544;8.918;2023-02-17T07:02:33;98168.00;;;4.65;87.94
50774;BME280;36745;48.544;8.918;2023-02-17T07:05:57;98164.53;;;4.76;88.06
50774;BME280;36745;48.544;8.918;2023-02-17T07:09:16;98172.78;;;4.83;88.29
50774;BME280;36745;48.544;8.918;2023-02-17T07:12:36;98180.59;;;4.84;88.29
50774;BME280;36745;48.544;8.918;2023-02-17T07:15:55;98190.81;;;4.98;88.17
50774;BME280;36745;48.544;8.918;2023-02-17T07:19:15;98192.50;;;5.20;88.89
50774;BME280;36745;48.544;8.918;2023-02-17T07:22:35;98195.38;;;5.48;89.30
50774;BME280;36745;48.544;8.918;2023-02-17T07:25:55;98191.22;;;5.97;89.44
50774;BME280;36745;48.544;8.918;2023-02-17T07:29:15;98209.25;;;6.41;88.73
50774;BME280;36745;48.544;8.918;2023-02-17T07:32:34;98208.47;;;6.72;89.23
50774;BME280;36745;48.544;8.918;2023-02-17T07:35:54;98215.06;;;7.10;88.22
50774;BME280;36745;48.544;8.918;2023-02-17T07:39:14;98213.03;;;7.39;87.93
50774;BME280;36745;48.544;8.918;2023-02-17T07:42:34;98220.38;;;7.59;87.77
50774;BME280;36745;48.544;8.918;2023-02-17T07:45:57;98213.69;;;7.71;87.48
50774;BME280;36745;48.544;8.918;2023-02-17T07:49:17;98221.41;;;7.90;86.93
50774;BME280;36745;48.544;8.918;2023-02-17T07:52:37;98226.13;;;7.93;87.40
50774;BME280;36745;48.544;8.918;2023-02-17T07:55:56;98218.56;;;8.05;87.11
50774;BME280;36745;48.544;8.918;2023-02-17T07:59:17;98211.97;;;7.95;87.12
50774;BME280;36745;48.544;8.918;2023-02-17T08:02:37;98220.13;;;8.09;87.31
50774;BME280;36745;48.544;8.918;2023-02-17T08:05:56;98222.84;;;8.13;87.39
50774;BME280;36745;48.544;8.918;2023-02-17T08:09:16;98232.97;;;8.30;87.15
50774;BME280;36745;48.544;8.918;2023-02-17T08:12:54;98239.94;;;8.45;86.93
50774;BME280;36745;48.544;8.918;2023-02-17T08:16:33;98238.22;;;8.62;86.89
50774;BME280;36745;48.544;8.918;2023-02-17T08:19:56;98242.03;;;8.78;86.62
50774;BME280;36745;48.544;8.918;2023-02-17T08:23:16;98237.97;;;8.94;86.39
50774;BME280;36745;48.544;8.918;2023-02-17T08:26:35;98239.44;;;9.02;86.44
50774;BME280;36745;48.544;8.918;2023-02-17T08:29:55;98247.19;;;9.14;86.16
50774;BME280;36745;48.544;8.918;2023-02-17T08:33:15;98242.75;;;9.23;85.83
50774;BME280;36745;48.544;8.918;2023-02-17T08:36:37;98244.75;;;9.23;85.79
50774;BME280;36745;48.544;8.918;2023-02-17T08:39:57;98237.97;;;9.31;85.88
50774;BME280;36745;48.544;8.918;2023-02-17T08:43:19;98237.53;;;9.36;85.66
50774;BME280;36745;48.544;8.918;2023-02-17T08:46:39;98244.53;;;9.44;85.79
50774;BME280;36745;48.544;8.918;2023-02-17T08:49:59;98247.63;;;9.50;85.73
50774;BME280;36745;48.544;8.918;2023-02-17T08:53:19;98246.72;;;9.56;86.04
50774;BME280;36745;48.544;8.918;2023-02-17T08:56:40;98231.66;;;9.68;85.78
50774;BME280;36745;48.544;8.918;2023-02-17T09:00:00;98239.78;;;9.79;85.74
50774;BME280;36745;48.544;8.918;2023-02-17T09:03:20;98232.56;;;9.88;85.82
50774;BME280;36745;48.544;8.918;2023-02-17T09:06:43;98248.69;;;9.90;85.45
50774;BME280;36745;48.544;8.918;2023-02-17T09:10:07;98240.34;;;9.97;85.36
50774;BME280;36745;48.544;8.918;2023-02-17T09:13:27;98245.84;;;9.97;85.04
50774;BME280;36745;48.544;8.918;2023-02-17T09:16:46;98251.69;;;10.02;85.21
50774;BME280;36745;48.544;8.918;2023-02-17T09:20:07;98254.38;;;10.06;84.83
50774;BME280;36745;48.544;8.918;2023-02-17T09:23:28;98252.34;;;10.10;84.75
50774;BME280;36745;48.544;8.918;2023-02-17T09:26:48;98239.78;;;10.09;84.92
50774;BME280;36745;48.544;8.918;2023-02-17T09:30:08;98235.81;;;10.10;84.66
50774;BME280;36745;48.544;8.918;2023-02-17T09:33:28;98231.16;;;10.07;85.03
50774;BME280;36745;48.544;8.918;2023-02-17T09:36:49;98235.00;;;10.13;85.46
50774;BME280;36745;48.544;8.918;2023-02-17T09:40:21;98222.34;;;10.19;85.16
50774;BME280;36745;48.544;8.918;2023-02-17T09:43:42;98234.88;;;10.24;85.53
50774;BME280;36745;48.544;8.918;2023-02-17T09:47:06;98237.47;;;10.34;85.56
50774;BME280;36745;48.544;8.918;2023-02-17T09:50:54;98232.69;;;10.38;84.97
50774;BME280;36745;48.544;8.918;2023-02-17T09:58:24;98230.75;;;10.62;84.92
50774;BME280;36745;48.544;8.918;2023-02-17T10:01:46;98221.59;;;10.69;85.21
50774;BME280;36745;48.544;8.918;2023-02-17T10:05:10;98230.88;;;10.78;84.82
50774;BME280;36745;48.544;8.918;2023-02-17T10:08:46;98225.19;;;10.89;84.47
50774;BME280;36745;48.544;8.918;2023-02-17T10:12:12;98234.19;;;10.93;84.70
50774;BME280;36745;48.544;8.918;2023-02-17T10:15:42;98229.03;;;10.95;84.03
50774;BME280;36745;48.544;8.918;2023-02-17T10:19:20;98232.72;;;11.08;84.74
50774;BME280;36745;48.544;8.918;2023-02-17T10:22:43;98248.44;;;11.11;83.68
50774;BME280;36745;48.544;8.918;2023-02-17T10:33:37;98237.88;;;11.69;83.90
50774;BME280;36745;48.544;8.918;2023-02-17T10:37:01;98226.22;;;11.81;83.02
50774;BME280;36745;48.544;8.918;2023-02-17T10:40:25;98225.56;;;11.93;82.61
50774;BME280;36745;48.544;8.918;2023-02-17T10:43:45;98253.69;;;11.88;82.08
50774;BME280;36745;48.544;8.918;2023-02-17T10:47:04;98267.41;;;11.72;81.47
50774;BME280;36745;48.544;8.918;2023-02-17T10:50:25;98280.41;;;11.75;81.57
50774;BME280;36745;48.544;8.918;2023-02-17T10:53:48;98276.56;;;11.69;81.13
50774;BME280;36745;48.544;8.918;2023-02-17T10:57:11;98267.91;;;11.67;81.35
50774;BME280;36745;48.544;8.918;2023-02-17T11:00:31;98265.00;;;11.54;81.12
50774;BME280;36745;48.544;8.918;2023-02-17T11:03:59;98265.06;;;11.51;81.30
50774;BME280;36745;48.544;8.918;2023-02-17T11:07:35;98261.59;;;11.66;81.63
50774;BME280;36745;48.544;8.918;2023-02-17T11:14:24;98267.19;;;11.63;81.86
50774;BME280;36745;48.544;8.918;2023-02-17T11:17:46;98261.47;;;11.54;81.60
50774;BME280;36745;48.544;8.918;2023-02-17T11:21:08;98263.94;;;11.48;82.04
50774;BME280;36745;48.544;8.918;2023-02-17T11:24:31;98262.38;;;11.47;82.27
50774;BME280;36745;48.544;8.918;2023-02-17T11:27:54;98262.38;;;11.47;82.01
50774;BME280;36745;48.544;8.918;2023-02-17T11:31:29;98252.72;;;11.35;82.52
50774;BME280;36745;48.544;8.918;2023-02-17T11:34:57;98246.38;;;11.39;83.18
50774;BME280;36745;48.544;8.918;2023-02-17T11:38:19;98244.66;;;11.45;82.92
50774;BME280;36745;48.544;8.918;2023-02-17T11:41:39;98246.59;;;11.48;83.27
50774;BME280;36745;48.544;8.918;2023-02-17T11:45:14;98246.97;;;11.50;83.57
50774;BME280;36745;48.544;8.918;2023-02-17T11:59:45;98230.66;;;11.35;84.79
50774;BME280;36745;48.544;8.918;2023-02-17T12:25:49;98224.94;;;11.66;84.62
50774;BME280;36745;48.544;8.918;2023-02-17T12:36:30;98207.03;;;11.74;84.70
50774;BME280;36745;48.544;8.918;2023-02-17T12:39:54;98215.19;;;11.81;84.57
50774;BME280;36745;48.544;8.918;2023-02-17T12:44:05;98212.97;;;11.92;84.25
50774;BME280;36745;48.544;8.918;2023-02-17T12:48:10;98222.31;;;11.98;84.27
50774;BME280;36745;48.544;8.918;2023-02-17T12:51:35;98212.03;;;11.99;83.67
50774;BME280;36745;48.544;8.918;2023-02-17T12:55:12;98207.44;;;11.92;83.91
50774;BME280;36745;48.544;8.918;2023-02-17T12:58:36;98215.66;;;11.96;83.77
50774;BME280;36745;48.544;8.918;2023-02-17T13:05:33;98204.19;;;11.97;83.61
50774;BME280;36745;48.544;8.918;2023-02-17T13:09:00;98212.09;;;11.95;83.87
50774;BME280;36745;48.544;8.918;2023-02-17T13:15:43;98207.13;;;12.06;83.91
50774;BME280;36745;48.544;8.918;2023-02-17T13:19:07;98209.06;;;12.26;83.64
50774;BME280;36745;48.544;8.918;2023-02-17T13:22:27;98202.41;;;12.23;83.16
50774;BME280;36745;48.544;8.918;2023-02-17T13:26:02;98213.19;;;12.17;83.00
50774;BME280;36745;48.544;8.918;2023-02-17T13:32:44;98220.03;;;11.93;83.46
50774;BME280;36745;48.544;8.918;2023-02-17T13:36:12;98219.28;;;11.93;83.95
50774;BME280;36745;48.544;8.918;2023-02-17T13:39:33;98200.53;;;12.00;84.06
50774;BME280;36745;48.544;8.918;2023-02-17T13:42:55;98196.84;;;12.07;83.84
50774;BME280;36745;48.544;8.918;2023-02-17T13:46:20;98206.78;;;12.04;83.47
50774;BME280;36745;48.544;8.918;2023-02-17T13:49:56;98198.69;;;12.13;83.63
50774;BME280;36745;48.544;8.918;2023-02-17T13:56:49;98201.81;;;12.32;82.11
50774;BME280;36745;48.544;8.918;2023-02-17T14:00:20;98189.56;;;12.49;82.59
50774;BME280;36745;48.544;8.918;2023-02-17T14:03:45;98195.19;;;12.45;81.39
50774;BME280;36745;48.544;8.918;2023-02-17T14:07:05;98184.03;;;12.49;81.66
50774;BME280;36745;48.544;8.918;2023-02-17T14:10:26;98196.47;;;12.57;81.53
50774;BME280;36745;48.544;8.918;2023-02-17T14:13:48;98189.38;;;12.56;81.11
50774;BME280;36745;48.544;8.918;2023-02-17T14:17:26;98175.03;;;12.61;81.33
50774;BME280;36745;48.544;8.918;2023-02-17T14:20:46;98181.94;;;12.69;81.47
50774;BME280;36745;48.544;8.918;2023-02-17T14:24:07;98170.81;;;12.73;80.79
50774;BME280;36745;48.544;8.918;2023-02-17T14:27:45;98185.94;;;12.68;80.26
50774;BME280;36745;48.544;8.918;2023-02-17T14:31:10;98188.50;;;12.59;80.27
50774;BME280;36745;48.544;8.918;2023-02-17T14:34:33;98192.47;;;12.58;80.36
50774;BME280;36745;48.544;8.918;2023-02-17T14:37:53;98196.28;;;12.48;80.46
50774;BME280;36745;48.544;8.918;2023-02-17T14:41:12;98186.47;;;12.47;80.69
50774;BME280;36745;48.544;8.918;2023-02-17T14:44:32;98188.59;;;12.39;80.51
50774;BME280;36745;48.544;8.918;2023-02-17T14:47:52;98188.94;;;12.25;80.62
50774;BME280;36745;48.544;8.918;2023-02-17T14:51:14;98184.63;;;12.24;81.10
50774;BME280;36745;48.544;8.918;2023-02-17T14:54:34;98184.69;;;12.20;81.30
50774;BME280;36745;48.544;8.918;2023-02-17T14:57:54;98188.69;;;12.19;81.33
50774;BME280;36745;48.544;8.918;2023-02-17T15:01:16;98189.19;;;12.14;81.65
50774;BME280;36745;48.544;8.918;2023-02-17T15:04:36;98176.91;;;12.15;81.71
50774;BME280;36745;48.544;8.918;2023-02-17T15:07:59;98184.88;;;12.13;81.69
50774;BME280;36745;48.544;8.918;2023-02-17T15:14:48;98185.56;;;12.17;81.42
50774;BME280;36745;48.544;8.918;2023-02-17T15:18:08;98183.84;;;12.24;81.70
50774;BME280;36745;48.544;8.918;2023-02-17T15:21:33;98183.06;;;12.23;81.19
50774;BME280;36745;48.544;8.918;2023-02-17T15:24:53;98182.63;;;12.25;81.15
50774;BME280;36745;48.544;8.918;2023-02-17T15:28:18;98175.56;;;12.24;80.99
50774;BME280;36745;48.544;8.918;2023-02-17T15:31:38;98180.72;;;12.22;80.97
50774;BME280;36745;48.544;8.918;2023-02-17T15:34:58;98173.31;;;12.18;80.76
50774;BME280;36745;48.544;8.918;2023-02-17T15:38:18;98167.25;;;12.24;81.18
50774;BME280;36745;48.544;8.918;2023-02-17T15:41:38;98171.13;;;12.26;80.69
50774;BME280;36745;48.544;8.918;2023-02-17T15:44:58;98171.66;;;12.21;81.00
50774;BME280;36745;48.544;8.918;2023-02-17T15:51:41;98155.50;;;12.19;81.01
50774;BME280;36745;48.544;8.918;2023-02-17T15:55:01;98154.72;;;12.19;80.90
50774;BME280;36745;48.544;8.918;2023-02-17T15:58:21;98153.16;;;12.18;81.21
50774;BME280;36745;48.544;8.918;2023-02-17T16:01:41;98147.53;;;12.22;80.71
50774;BME280;36745;48.544;8.918;2023-02-17T16:05:01;98168.09;;;12.20;81.25
50774;BME280;36745;48.544;8.918;2023-02-17T16:08:21;98157.91;;;12.17;81.18
50774;BME280;36745;48.544;8.918;2023-02-17T16:11:52;98160.31;;;12.15;81.48
50774;BME280;36745;48.544;8.918;2023-02-17T16:15:19;98163.44;;;12.17;81.35
50774;BME280;36745;48.544;8.918;2023-02-17T16:18:40;98166.47;;;12.23;81.47
50774;BME280;36745;48.544;8.918;2023-02-17T16:22:00;98159.28;;;12.26;81.58
50774;BME280;36745;48.544;8.918;2023-02-17T16:25:21;98154.63;;;12.23;81.54
50774;BME280;36745;48.544;8.918;2023-02-17T16:28:41;98151.25;;;12.15;81.41
50774;BME280;36745;48.544;8.918;2023-02-17T16:32:00;98148.50;;;12.15;81.65
50774;BME280;36745;48.544;8.918;2023-02-17T16:35:25;98163.53;;;12.14;81.40
50774;BME280;36745;48.544;8.918;2023-02-17T16:38:48;98152.22;;;12.08;81.60
50774;BME280;36745;48.544;8.918;2023-02-17T16:42:10;98157.38;;;12.06;81.76
50774;BME280;36745;48.544;8.918;2023-02-17T16:45:31;98162.91;;;12.06;82.01
50774;BME280;36745;48.544;8.918;2023-02-17T16:48:52;98166.38;;;12.10;81.87
50774;BME280;36745;48.544;8.918;2023-02-17T16:52:24;98166.53;;;12.03;81.92
50774;BME280;36745;48.544;8.918;2023-02-17T16:55:44;98167.25;;;12.07;81.78
50774;BME280;36745;48.544;8.918;2023-02-17T16:59:04;98165.31;;;12.04;82.20
50774;BME280;36745;48.544;8.918;2023-02-17T17:02:24;98163.28;;;12.08;82.01
50774;BME280;36745;48.544;8.918;2023-02-17T17:05:44;98163.28;;;12.08;81.83
50774;BME280;36745;48.544;8.918;2023-02-17T17:09:04;98165.16;;;12.11;81.73
50774;BME280;36745;48.544;8.918;2023-02-17T17:12:24;98177.94;;;12.05;81.84
50774;BME280;36745;48.544;8.918;2023-02-17T17:15:44;98186.06;;;12.12;81.66
50774;BME280;36745;48.544;8.918;2023-02-17T17:19:04;98180.19;;;12.10;81.61
50774;BME280;36745;48.544;8.918;2023-02-17T17:22:24;98184.88;;;12.13;81.67
50774;BME280;36745;48.544;8.918;2023-02-17T17:25:44;98185.56;;;12.17;81.75
50774;BME280;36745;48.544;8.918;2023-02-17T17:29:07;98183.84;;;12.24;81.84
50774;BME280;36745;48.544;8.918;2023-02-17T17:32:27;98187.44;;;12.20;81.66
50774;BME280;36745;48.544;8.918;2023-02-17T17:35:46;98181.59;;;12.18;81.34
50774;BME280;36745;48.544;8.918;2023-02-17T17:39:10;98200.72;;;12.09;81.40
50774;BME280;36745;48.544;8.918;2023-02-17T17:42:31;98201.09;;;12.11;81.55
50774;BME280;36745;48.544;8.918;2023-02-17T17:45:51;98198.06;;;12.06;81.70
50774;BME280;36745;48.544;8.918;2023-02-17T17:49:12;98200.41;;;12.07;81.90
50774;BME280;36745;48.544;8.918;2023-02-17T17:52:32;98209.53;;;12.04;82.00
50774;BME280;36745;48.544;8.918;2023-02-17T17:55:52;98210.03;;;11.99;81.79
50774;BME280;36745;48.544;8.918;2023-02-17T17:59:13;98215.75;;;11.92;82.18
50774;BME280;36745;48.544;8.918;2023-02-17T18:02:33;98224.38;;;11.94;82.37
50774;BME280;36745;48.544;8.918;2023-02-17T18:05:53;98224.88;;;11.89;82.65
50774;BME280;36745;48.544;8.918;2023-02-17T18:09:16;98219.00;;;11.87;82.63
50774;BME280;36745;48.544;8.918;2023-02-17T18:12:40;98221.59;;;11.94;82.62
50774;BME280;36745;48.544;8.918;2023-02-17T18:16:01;98235.00;;;11.96;82.45
50774;BME280;36745;48.544;8.918;2023-02-17T18:19:21;98243.66;;;11.98;82.32
50774;BME280;36745;48.544;8.918;2023-02-17T18:22:42;98234.22;;;11.95;82.39
50774;BME280;36745;48.544;8.918;2023-02-17T18:26:02;98243.00;;;11.90;82.43
50774;BME280;36745;48.544;8.918;2023-02-17T18:29:22;98239.88;;;11.88;82.62
50774;BME280;36745;48.544;8.918;2023-02-17T18:32:42;98232.09;;;11.83;82.59
50774;BME280;36745;48.544;8.918;2023-02-17T18:36:10;98238.63;;;11.73;82.74
50774;BME280;36745;48.544;8.918;2023-02-17T18:39:30;98246.84;;;11.76;82.73
50774;BME280;36745;48.544;8.918;2023-02-17T18:42:50;98251.22;;;11.74;82.84
50774;BME280;36745;48.544;8.918;2023-02-17T18:46:10;98261.41;;;11.77;83.12
50774;BME280;36745;48.544;8.918;2023-02-17T18:49:30;98256.84;;;11.67;83.87
50774;BME280;36745;48.544;8.918;2023-02-17T18:52:50;98274.22;;;11.67;84.25
50774;BME280;36745;48.544;8.918;2023-02-17T18:56:14;98278.00;;;11.77;84.14
50774;BME280;36745;48.544;8.918;2023-02-17T18:59:35;98282.41;;;11.74;84.06
50774;BME280;36745;48.544;8.918;2023-02-17T19:02:54;98280.94;;;11.66;84.20
50774;BME280;36745;48.544;8.918;2023-02-17T19:06:16;98286.31;;;11.54;85.62
50774;BME280;36745;48.544;8.918;2023-02-17T19:09:39;98285.97;;;11.52;85.88
50774;BME280;36745;48.544;8.918;2023-02-17T19:13:02;98292.63;;;11.54;85.56
50774;BME280;36745;48.544;8.918;2023-02-17T19:16:24;98291.06;;;11.53;85.44
50774;BME280;36745;48.544;8.918;2023-02-17T19:19:45;98300.66;;;11.45;86.24
50774;BME280;36745;48.544;8.918;2023-02-17T19:23:05;98293.66;;;11.41;86.49
50774;BME280;36745;48.544;8.918;2023-02-17T19:26:24;98295.28;;;11.38;87.44
50774;BME280;36745;48.544;8.918;2023-02-17T19:29:45;98287.50;;;11.33;88.14
50774;BME280;36745;48.544;8.918;2023-02-17T19:33:04;98297.00;;;11.28;88.00
50774;BME280;36745;48.544;8.918;2023-02-17T19:36:24;98296.25;;;11.28;88.63
50774;BME280;36745;48.544;8.918;2023-02-17T19:39:44;98298.53;;;11.33;88.35
50774;BME280;36745;48.544;8.918;2023-02-17T19:43:04;98306.88;;;11.29;88.83